createdAt,value
2022-09-10T00:01:24.587Z,6.28
2022-09-10T00:03:51.697Z,5.95
2022-09-10T00:06:19.471Z,4.85
2022-09-10T00:08:47.081Z,6.80
2022-09-10T00:11:17.555Z,5.65
2022-09-10T00:13:44.614Z,6.68
2022-09-10T00:16:14.804Z,7.47
2022-09-10T00:18:43.438Z,7.28
2022-09-10T00:21:13.291Z,10.65
2022-09-10T00:23:41.282Z,6.57
2022-09-10T00:26:21.851Z,8.65
2022-09-10T00:28:51.149Z,6.05
2022-09-10T00:31:19.641Z,4.80
2022-09-10T00:33:46.553Z,5.53
2022-09-10T00:36:15.567Z,4.63
2022-09-10T00:38:42.764Z,8.90
2022-09-10T00:41:10.055Z,5.00
2022-09-10T00:44:04.137Z,5.25
2022-09-10T00:46:43.480Z,4.13
2022-09-10T00:49:20.441Z,4.38
2022-09-10T00:51:48.993Z,4.63
2022-09-10T00:54:19.294Z,5.57
2022-09-10T00:56:47.697Z,5.20
2022-09-10T00:59:21.371Z,9.43
2022-09-10T01:01:49.370Z,3.08
2022-09-10T01:04:16.763Z,5.57
2022-09-10T01:06:46.457Z,6.10
2022-09-10T01:09:16.343Z,11.65
2022-09-10T01:12:35.681Z,3.30
2022-09-10T01:15:22.099Z,4.50
2022-09-10T01:18:16.947Z,5.85
2022-09-10T01:21:05.546Z,3.63
2022-09-10T01:23:43.191Z,6.38
2022-09-10T01:26:23.242Z,4.65
2022-09-10T01:28:56.050Z,8.80
2022-09-10T01:32:10.716Z,7.85
2022-09-10T01:34:51.080Z,7.43
2022-09-10T01:37:24.676Z,5.32
2022-09-10T01:39:53.516Z,7.75
2022-09-10T01:42:20.429Z,6.07
2022-09-10T01:44:52.073Z,5.85
2022-09-10T02:50:11.728Z,6.28
2022-09-10T02:52:38.719Z,5.90
2022-09-10T02:55:05.986Z,8.23
2022-09-10T02:57:32.852Z,8.32
2022-09-10T02:59:59.769Z,6.85
2022-09-10T03:02:26.608Z,6.47
2022-09-10T03:04:53.448Z,8.00
2022-09-10T03:07:20.311Z,8.32
2022-09-10T03:09:47.672Z,7.25
2022-09-10T03:12:16.313Z,6.55
2022-09-10T03:14:43.550Z,10.55
2022-09-10T03:17:10.568Z,8.93
2022-09-10T03:19:37.529Z,8.00
2022-09-10T03:22:04.520Z,11.88
2022-09-10T03:24:31.498Z,6.22
2022-09-10T03:26:58.354Z,5.07
2022-09-10T03:29:25.705Z,5.03
2022-09-10T03:31:52.687Z,6.63
2022-09-10T03:34:20.490Z,5.95
2022-09-10T03:36:47.434Z,9.00
2022-09-10T03:39:15.275Z,6.47
2022-09-10T03:41:42.570Z,6.43
2022-09-10T03:44:10.321Z,8.85
2022-09-10T03:46:38.276Z,8.68
2022-09-10T03:49:06.064Z,4.30
2022-09-10T03:51:34.130Z,5.00
2022-09-10T03:54:02.602Z,8.10
2022-09-10T03:56:29.585Z,6.30
2022-09-10T03:58:57.467Z,9.13
2022-09-10T04:01:24.920Z,6.22
2022-09-10T04:03:55.445Z,7.45
2022-09-10T04:06:22.673Z,6.57
2022-09-10T04:08:52.049Z,10.65
2022-09-10T04:11:19.577Z,8.07
2022-09-10T04:13:48.637Z,10.10
2022-09-10T04:16:17.122Z,8.68
2022-09-10T04:18:44.333Z,6.30
2022-09-10T04:21:11.929Z,7.45
2022-09-10T04:23:41.307Z,12.60
2022-09-10T04:26:13.094Z,17.77
2022-09-10T04:28:40.479Z,8.63
2022-09-10T04:31:07.473Z,6.35
2022-09-10T04:33:34.476Z,7.32
2022-09-10T04:36:01.882Z,4.65
2022-09-10T04:38:30.495Z,6.80
2022-09-10T04:40:58.646Z,5.70
2022-09-10T04:43:26.280Z,6.43
2022-09-10T04:45:55.425Z,5.75
2022-09-10T04:48:26.021Z,6.28
2022-09-10T04:51:14.831Z,6.18
2022-09-10T04:53:41.185Z,5.90
2022-09-10T04:56:08.709Z,6.60
2022-09-10T04:58:38.897Z,6.13
2022-09-10T05:01:06.575Z,5.35
2022-09-10T05:03:33.929Z,9.00
2022-09-10T05:06:00.820Z,5.03
2022-09-10T05:08:27.779Z,12.05
2022-09-10T05:10:55.132Z,4.53
2022-09-10T05:13:22.493Z,7.75
2022-09-10T05:15:49.657Z,6.10
2022-09-10T05:18:16.839Z,6.30
2022-09-10T05:20:44.993Z,7.05
2022-09-10T05:23:12.040Z,4.85
2022-09-10T05:25:39.289Z,6.95
2022-09-10T05:28:06.171Z,8.20
2022-09-10T05:30:33.298Z,4.10
2022-09-10T05:33:01.539Z,7.28
2022-09-10T05:35:29.352Z,4.50
2022-09-10T05:37:57.491Z,6.57
2022-09-10T05:40:25.505Z,4.35
2022-09-10T05:42:53.388Z,4.30
2022-09-10T05:45:20.515Z,5.45
2022-09-10T05:47:47.926Z,7.15
2022-09-10T05:50:17.359Z,6.38
2022-09-10T05:52:44.594Z,9.00
2022-09-10T05:55:12.496Z,11.88
2022-09-10T05:57:40.448Z,6.55
2022-09-10T06:00:09.399Z,7.18
2022-09-10T06:02:36.820Z,6.80
2022-09-10T06:05:04.007Z,7.13
2022-09-10T06:07:31.289Z,10.63
2022-09-10T06:09:58.197Z,12.27
2022-09-10T06:12:25.130Z,8.77
2022-09-10T06:14:52.710Z,10.95
2022-09-10T06:17:19.881Z,5.95
2022-09-10T06:19:47.072Z,10.25
2022-09-10T06:22:14.611Z,8.23
2022-09-10T06:24:42.195Z,4.50
2022-09-10T06:27:09.799Z,6.50
2022-09-10T06:29:36.840Z,3.90
2022-09-10T06:32:04.253Z,3.40
2022-09-10T06:34:31.464Z,2.85
2022-09-10T06:36:58.534Z,6.32
2022-09-10T06:39:25.534Z,3.45
2022-09-10T06:41:53.526Z,5.35
2022-09-10T06:44:22.529Z,7.43
2022-09-10T06:47:30.762Z,5.80
2022-09-10T07:49:01.487Z,3.85
2022-09-10T07:51:30.166Z,5.70
2022-09-10T07:53:58.815Z,4.07
2022-09-10T07:56:25.855Z,2.40
2022-09-10T07:58:54.125Z,8.93
2022-09-10T08:01:21.402Z,3.00
2022-09-10T08:03:48.645Z,2.03
2022-09-10T08:06:16.396Z,4.25
2022-09-10T08:08:43.428Z,3.03
2022-09-10T08:11:14.320Z,6.55
2022-09-10T08:13:45.476Z,3.25
2022-09-10T08:16:15.446Z,3.95
2022-09-10T08:18:43.735Z,5.45
2022-09-10T08:21:11.108Z,3.67
2022-09-10T08:23:39.794Z,3.38
2022-09-10T08:26:08.251Z,4.70
2022-09-10T08:28:36.029Z,2.40
2022-09-10T08:31:08.040Z,4.85
2022-09-10T08:33:36.569Z,4.60
2022-09-10T08:36:04.819Z,2.20
2022-09-10T08:38:36.960Z,6.43
2022-09-10T08:41:14.971Z,3.47
2022-09-10T08:43:56.946Z,2.58
2022-09-10T08:46:29.448Z,1.52
2022-09-10T09:51:00.319Z,4.13
2022-09-10T09:53:28.747Z,1.05
2022-09-10T09:55:58.467Z,0.90
2022-09-10T09:58:26.371Z,0.95
2022-09-10T10:01:04.174Z,0.88
2022-09-10T10:03:35.554Z,1.17
2022-09-10T10:06:08.576Z,1.15
2022-09-10T10:08:42.635Z,2.90
2022-09-10T10:11:11.170Z,1.08
2022-09-10T10:13:44.004Z,2.65
2022-09-10T10:16:36.865Z,2.60
2022-09-10T10:19:24.053Z,0.60
2022-09-10T10:21:50.896Z,3.33
2022-09-10T10:24:34.262Z,0.60
2022-09-10T10:27:01.313Z,1.67
2022-09-10T10:29:28.740Z,0.75
2022-09-10T10:31:56.364Z,0.60
2022-09-10T10:34:54.967Z,2.30
2022-09-10T10:37:25.074Z,1.77
2022-09-10T10:40:10.322Z,0.88
2022-09-10T10:43:01.502Z,1.30
2022-09-10T10:45:37.927Z,1.42
2022-09-10T10:48:05.224Z,2.30
2022-09-10T10:50:32.424Z,1.45
2022-09-10T10:53:18.320Z,1.05
2022-09-10T10:56:03.093Z,0.90
2022-09-10T10:58:53.459Z,1.20
2022-09-10T11:01:31.358Z,0.93
2022-09-10T11:04:13.168Z,1.02
2022-09-10T11:06:45.453Z,0.77
2022-09-10T11:09:26.020Z,1.13
2022-09-10T11:11:52.797Z,0.80
2022-09-10T11:14:49.609Z,1.65
2022-09-10T11:20:34.455Z,4.47
2022-09-10T11:23:12.520Z,3.20
2022-09-10T11:26:26.670Z,3.50
2022-09-10T11:29:32.224Z,7.38
2022-09-10T11:32:06.947Z,3.22
2022-09-10T11:35:11.468Z,3.08
2022-09-10T11:37:57.117Z,5.10
2022-09-10T11:40:43.362Z,5.90
2022-09-10T11:45:53.796Z,7.05
2022-09-10T11:48:42.499Z,3.17
2022-09-10T11:51:17.837Z,2.65
2022-09-10T11:53:45.359Z,3.30
2022-09-10T11:56:31.263Z,2.85
2022-09-10T11:59:37.426Z,4.22
2022-09-10T12:02:07.207Z,2.38
2022-09-10T12:05:01.483Z,4.03
2022-09-10T12:07:49.971Z,6.90
2022-09-10T12:10:31.626Z,3.13
2022-09-10T12:12:59.131Z,2.78
2022-09-10T12:15:31.220Z,2.53
2022-09-10T12:18:04.455Z,5.68
2022-09-10T12:20:39.480Z,5.35
2022-09-10T12:23:06.987Z,5.57
2022-09-10T12:25:34.899Z,3.88
2022-09-10T12:28:07.767Z,3.42
2022-09-10T12:30:37.949Z,6.13
2022-09-10T12:33:13.585Z,2.38
2022-09-10T12:35:49.625Z,4.43
2022-09-10T12:38:54.072Z,3.92
2022-09-10T12:41:21.070Z,3.00
2022-09-10T12:43:47.980Z,1.92
2022-09-10T12:46:14.860Z,1.90
2022-09-10T12:48:51.101Z,4.47
2022-09-10T12:51:21.661Z,3.10
2022-09-10T12:54:25.992Z,2.53
2022-09-10T12:56:59.594Z,5.32
2022-09-10T12:59:33.177Z,3.53
2022-09-10T13:02:00.551Z,1.20
2022-09-10T13:04:28.624Z,4.82
2022-09-10T13:07:02.660Z,1.90
2022-09-10T13:09:37.906Z,2.15
2022-09-10T13:12:17.675Z,2.55
2022-09-10T13:14:51.157Z,4.38
2022-09-10T13:17:59.768Z,2.55
2022-09-10T13:20:26.555Z,4.75
2022-09-10T13:23:06.042Z,1.70
2022-09-10T13:25:34.966Z,2.53
2022-09-10T13:28:02.727Z,3.45
2022-09-10T13:30:31.148Z,3.13
2022-09-10T13:33:05.593Z,2.53
2022-09-10T13:36:25.239Z,3.92
2022-09-10T13:39:16.245Z,2.88
2022-09-10T13:42:16.848Z,2.38
2022-09-10T13:45:21.901Z,1.65
2022-09-10T13:47:48.801Z,3.83
2022-09-10T13:50:23.932Z,1.13
2022-09-10T13:52:55.104Z,2.17
2022-09-10T13:55:26.260Z,1.83
2022-09-10T13:57:57.984Z,2.63
2022-09-10T14:00:30.193Z,2.45
2022-09-10T14:02:59.761Z,1.92
2022-09-10T14:05:47.014Z,5.13
2022-09-10T14:08:22.806Z,5.78
2022-09-10T14:11:14.261Z,2.90
2022-09-10T14:13:55.617Z,3.83
2022-09-10T14:16:42.908Z,1.80
2022-09-10T14:19:34.276Z,4.80
2022-09-10T14:22:01.681Z,3.45
2022-09-10T14:24:35.783Z,3.45
2022-09-10T14:27:27.037Z,3.63
2022-09-10T14:29:58.717Z,6.45
2022-09-10T14:32:29.632Z,5.20
2022-09-10T14:34:56.498Z,5.53
2022-09-10T14:37:33.330Z,1.70
2022-09-10T14:40:17.835Z,3.15
2022-09-10T14:42:46.320Z,2.78
2022-09-10T14:45:46.536Z,5.35
2022-09-10T14:48:37.642Z,2.63
2022-09-10T14:51:12.254Z,2.50
2022-09-10T14:53:40.897Z,2.95
2022-09-10T14:56:30.822Z,3.13
2022-09-10T14:59:31.389Z,4.80
2022-09-10T15:02:00.961Z,3.55
2022-09-10T15:04:30.247Z,4.25
2022-09-10T15:07:00.941Z,3.80
2022-09-10T15:09:29.623Z,4.65
2022-09-10T15:12:05.767Z,2.90
2022-09-10T15:14:33.888Z,3.40
2022-09-10T15:17:00.833Z,3.20
2022-09-10T15:19:27.988Z,4.78
2022-09-10T15:21:55.012Z,3.75
2022-09-10T15:24:23.273Z,3.10
2022-09-10T15:26:50.978Z,2.40
2022-09-10T15:29:18.071Z,5.20
2022-09-10T15:31:45.111Z,4.60
2022-09-10T15:34:12.199Z,5.20
2022-09-10T15:36:40.380Z,4.25
2022-09-10T15:39:08.701Z,3.58
2022-09-10T15:41:35.583Z,3.05
2022-09-10T15:44:03.375Z,1.05
2022-09-10T15:46:30.270Z,5.30
2022-09-10T15:48:59.522Z,3.33
2022-09-10T15:51:26.993Z,5.65
2022-09-10T15:53:54.522Z,4.30
2022-09-10T15:56:24.139Z,4.28
2022-09-10T15:58:55.031Z,3.38
2022-09-10T16:01:25.105Z,3.08
2022-09-10T16:03:57.150Z,2.83
2022-09-10T16:06:27.392Z,1.52
2022-09-10T16:09:00.927Z,3.63
2022-09-10T16:11:33.144Z,1.10
2022-09-10T16:14:04.863Z,3.65
2022-09-10T16:16:32.931Z,5.28
2022-09-10T23:51:29.056Z,2.13
2022-09-10T23:53:56.163Z,5.88
2022-09-10T23:56:25.692Z,6.28
2022-09-10T23:58:52.673Z,5.00
